createdAt,value
2022-09-24T00:00:03.254Z,946.06
2022-09-24T00:05:03.116Z,946.20
2022-09-24T00:10:03.325Z,946.23
2022-09-24T00:15:03.151Z,946.25
2022-09-24T00:20:03.149Z,946.20
2022-09-24T00:25:03.127Z,946.06
2022-09-24T00:30:03.259Z,946.25
2022-09-24T00:35:03.159Z,946.23
2022-09-24T00:40:03.179Z,946.29
2022-09-24T00:45:03.084Z,946.41
2022-09-24T00:50:03.153Z,946.39
2022-09-24T00:55:03.041Z,946.45
2022-09-24T01:00:03.231Z,946.45
2022-09-24T01:05:03.056Z,946.43
2022-09-24T01:10:03.253Z,946.35
2022-09-24T01:15:03.042Z,946.35
2022-09-24T01:20:03.198Z,946.35
2022-09-24T01:25:03.104Z,946.31
2022-09-24T01:30:03.260Z,946.31
2022-09-24T01:35:03.066Z,946.27
2022-09-24T01:40:03.352Z,946.33
2022-09-24T01:45:03.111Z,946.35
2022-09-24T01:50:03.119Z,946.43
2022-09-24T01:55:03.086Z,946.45
2022-09-24T02:00:03.200Z,946.51
2022-09-24T02:05:08.125Z,946.51
2022-09-24T02:10:03.223Z,946.43
2022-09-24T02:15:03.166Z,946.47
2022-09-24T02:20:03.187Z,946.41
2022-09-24T02:25:03.046Z,946.33
2022-09-24T02:30:03.130Z,946.27
2022-09-24T02:35:02.993Z,946.22
2022-09-24T02:40:03.178Z,946.16
2022-09-24T02:45:03.099Z,946.06
2022-09-24T02:50:03.226Z,946.06
2022-09-24T02:55:03.025Z,946.02
2022-09-24T03:00:03.141Z,945.90
2022-09-24T03:05:03.101Z,945.88
2022-09-24T03:10:03.100Z,945.82
2022-09-24T03:15:03.160Z,945.82
2022-09-24T03:20:03.257Z,945.72
2022-09-24T03:25:03.154Z,945.72
2022-09-24T03:30:03.107Z,945.70
2022-09-24T03:35:03.291Z,945.59
2022-09-24T03:40:03.138Z,945.53
2022-09-24T03:45:03.070Z,945.53
2022-09-24T03:50:03.189Z,945.45
2022-09-24T03:55:04.083Z,945.37
2022-09-24T04:00:04.079Z,945.33
2022-09-24T04:05:03.029Z,945.29
2022-09-24T04:10:03.643Z,945.25
2022-09-24T04:15:03.073Z,945.23
2022-09-24T04:20:03.111Z,945.23
2022-09-24T04:25:03.039Z,945.22
2022-09-24T04:30:03.163Z,945.20
2022-09-24T04:35:07.445Z,945.16
2022-09-24T04:40:04.093Z,945.12
2022-09-24T04:45:03.030Z,945.10
2022-09-24T04:50:03.401Z,944.96
2022-09-24T04:55:03.063Z,944.84
2022-09-24T05:00:03.144Z,944.76
2022-09-24T05:05:03.124Z,944.70
2022-09-24T05:10:03.220Z,944.67
2022-09-24T05:15:03.062Z,944.61
2022-09-24T05:20:03.221Z,944.53
2022-09-24T05:25:03.093Z,944.53
2022-09-24T05:30:03.185Z,944.51
2022-09-24T05:35:08.111Z,944.47
2022-09-24T05:40:03.107Z,944.45
2022-09-24T05:45:03.063Z,944.45
2022-09-24T05:50:03.124Z,944.35
2022-09-24T05:55:04.331Z,944.29
2022-09-24T06:00:03.094Z,944.21
2022-09-24T06:05:03.088Z,944.15
2022-09-24T06:10:03.069Z,944.12
2022-09-24T06:15:03.335Z,944.10
2022-09-24T06:20:03.214Z,944.12
2022-09-24T06:25:03.031Z,944.10
2022-09-24T06:30:03.120Z,943.98
2022-09-24T06:35:03.085Z,943.92
2022-09-24T06:40:03.158Z,943.92
2022-09-24T06:45:03.069Z,944.02
2022-09-24T06:50:08.114Z,944.00
2022-09-24T06:55:03.080Z,944.02
2022-09-24T07:00:03.172Z,943.98
2022-09-24T07:05:03.038Z,944.04
2022-09-24T07:10:03.154Z,944.13
2022-09-24T07:15:03.034Z,944.17
2022-09-24T07:20:03.086Z,944.19
2022-09-24T07:25:03.141Z,944.17
2022-09-24T07:30:03.212Z,944.21
2022-09-24T07:35:03.279Z,944.23
2022-09-24T07:40:03.103Z,944.21
2022-09-24T07:45:03.053Z,944.21
2022-09-24T07:50:03.195Z,944.25
2022-09-24T07:55:03.062Z,944.29
2022-09-24T08:00:03.089Z,944.33
2022-09-24T08:05:02.999Z,944.37
2022-09-24T08:10:03.117Z,944.43
2022-09-24T08:15:03.039Z,944.47
2022-09-24T08:20:03.141Z,944.59
2022-09-24T08:25:03.092Z,944.61
2022-09-24T08:30:03.174Z,944.67
2022-09-24T08:35:03.135Z,944.76
2022-09-24T08:40:03.195Z,944.80
2022-09-24T08:45:03.013Z,944.88
2022-09-24T08:50:03.137Z,944.94
2022-09-24T08:55:03.075Z,945.02
2022-09-24T09:00:03.118Z,944.96
2022-09-24T09:05:03.119Z,945.04
2022-09-24T09:10:03.149Z,945.12
2022-09-24T09:15:03.120Z,945.14
2022-09-24T09:20:03.128Z,945.23
2022-09-24T09:25:04.335Z,945.27
2022-09-24T09:30:03.195Z,945.22
2022-09-24T09:35:03.109Z,945.18
2022-09-24T09:40:03.102Z,945.25
2022-09-24T09:45:03.023Z,945.33
2022-09-24T09:50:03.125Z,945.43
2022-09-24T09:55:03.015Z,945.47
2022-09-24T10:00:03.022Z,945.45
2022-09-24T10:05:03.070Z,945.37
2022-09-24T10:10:03.277Z,945.43
2022-09-24T10:15:03.048Z,945.47
2022-09-24T10:20:03.147Z,945.53
2022-09-24T10:25:03.085Z,945.59
2022-09-24T10:30:03.132Z,945.67
2022-09-24T10:35:03.047Z,945.69
2022-09-24T10:40:03.196Z,945.72
2022-09-24T10:45:03.041Z,945.78
2022-09-24T10:50:03.223Z,945.84
2022-09-24T10:55:03.101Z,945.92
2022-09-24T11:00:03.134Z,946.06
2022-09-24T11:05:03.157Z,946.06
2022-09-24T11:10:03.233Z,946.18
2022-09-24T11:15:03.201Z,946.18
2022-09-24T11:20:03.215Z,946.20
2022-09-24T11:25:03.108Z,946.23
2022-09-24T11:30:03.071Z,946.22
2022-09-24T11:35:03.007Z,946.22
2022-09-24T11:40:03.395Z,946.27
2022-09-24T11:45:03.252Z,946.29
2022-09-24T11:50:03.207Z,946.39
2022-09-24T11:55:03.115Z,946.43
2022-09-24T12:00:03.180Z,946.45
2022-09-24T12:05:03.095Z,946.45
2022-09-24T12:10:03.111Z,946.45
2022-09-24T12:15:02.997Z,946.47
2022-09-24T12:20:04.224Z,946.57
2022-09-24T12:25:03.071Z,946.63
2022-09-24T12:30:03.326Z,946.63
2022-09-24T12:35:04.062Z,946.63
2022-09-24T12:40:03.215Z,946.65
2022-09-24T12:45:03.068Z,946.61
2022-09-24T12:50:03.251Z,946.63
2022-09-24T12:55:03.120Z,946.65
2022-09-24T13:00:03.146Z,946.59
2022-09-24T13:05:08.106Z,946.55
2022-09-24T13:10:03.171Z,946.45
2022-09-24T13:15:03.099Z,946.43
2022-09-24T13:20:03.244Z,946.45
2022-09-24T13:25:03.037Z,946.41
2022-09-24T13:30:03.146Z,946.41
2022-09-24T13:35:03.086Z,946.41
2022-09-24T13:40:03.303Z,946.37
2022-09-24T13:45:06.255Z,946.35
2022-09-24T13:50:03.238Z,946.33
2022-09-24T13:55:03.012Z,946.23
2022-09-24T14:00:03.217Z,946.16
2022-09-24T14:05:03.068Z,946.04
2022-09-24T14:10:03.194Z,945.90
2022-09-24T14:15:03.164Z,945.82
2022-09-24T14:20:03.195Z,945.76
2022-09-24T14:25:03.114Z,945.65
2022-09-24T14:30:03.132Z,945.53
2022-09-24T14:35:03.063Z,945.43
2022-09-24T14:40:03.164Z,945.31
2022-09-24T14:45:03.132Z,945.22
2022-09-24T14:50:08.161Z,945.10
2022-09-24T14:55:03.116Z,945.12
2022-09-24T15:00:03.215Z,945.04
2022-09-24T15:05:06.098Z,945.02
2022-09-24T15:10:03.149Z,945.04
2022-09-24T15:15:04.148Z,944.98
2022-09-24T15:20:03.209Z,944.80
2022-09-24T15:25:03.174Z,944.67
2022-09-24T15:30:03.425Z,944.72
2022-09-24T15:35:03.115Z,944.59
2022-09-24T15:40:03.182Z,944.37
2022-09-24T15:45:03.359Z,944.43
2022-09-24T15:50:03.168Z,944.21
2022-09-24T15:55:03.128Z,944.13
2022-09-24T16:00:03.155Z,944.02
2022-09-24T16:05:04.248Z,943.86
2022-09-24T16:10:03.174Z,943.74
2022-09-24T16:15:03.079Z,943.33
2022-09-24T16:20:03.268Z,943.06
2022-09-24T16:25:03.091Z,942.84
2022-09-24T16:30:03.048Z,942.78
2022-09-24T16:35:03.315Z,942.74
2022-09-24T16:40:03.203Z,942.70
2022-09-24T16:45:03.109Z,942.74
2022-09-24T16:50:03.172Z,942.76
2022-09-24T16:55:03.217Z,942.80
2022-09-24T17:00:03.169Z,942.82
2022-09-24T17:05:03.193Z,942.78
2022-09-24T17:10:03.208Z,942.63
2022-09-24T17:15:03.098Z,942.51
2022-09-24T17:20:03.335Z,942.35
2022-09-24T17:25:03.035Z,942.29
2022-09-24T17:30:03.293Z,942.31
2022-09-24T17:35:08.079Z,942.29
2022-09-24T17:40:03.274Z,942.21
2022-09-24T17:45:03.123Z,942.11
2022-09-24T17:50:03.161Z,942.08
2022-09-24T17:55:03.060Z,942.04
2022-09-24T18:00:03.212Z,942.02
2022-09-24T18:05:03.113Z,941.96
2022-09-24T18:10:03.326Z,941.94
2022-09-24T18:15:03.137Z,941.84
2022-09-24T18:20:03.174Z,941.86
2022-09-24T18:25:03.049Z,941.76
2022-09-24T18:30:03.195Z,941.72
2022-09-24T18:35:03.097Z,941.70
2022-09-24T18:40:03.308Z,941.72
2022-09-24T18:45:03.088Z,941.68
2022-09-24T18:50:03.246Z,941.66
2022-09-24T18:55:03.072Z,941.70
2022-09-24T19:00:03.249Z,941.70
2022-09-24T19:05:03.138Z,941.74
2022-09-24T19:10:03.216Z,941.63
2022-09-24T19:15:03.045Z,941.59
2022-09-24T19:20:03.191Z,941.66
2022-09-24T19:25:03.079Z,941.72
2022-09-24T19:30:03.125Z,941.68
2022-09-24T19:35:03.196Z,941.68
2022-09-24T19:40:03.254Z,941.70
2022-09-24T19:45:03.143Z,941.74
2022-09-24T19:50:03.150Z,941.70
2022-09-24T19:55:03.167Z,941.57
2022-09-24T20:00:03.331Z,941.41
2022-09-24T20:05:03.094Z,941.47
2022-09-24T20:10:03.120Z,941.55
2022-09-24T20:15:03.089Z,941.55
2022-09-24T20:20:03.142Z,941.59
2022-09-24T20:25:03.198Z,941.59
2022-09-24T20:30:04.158Z,941.41
2022-09-24T20:35:03.150Z,941.39
2022-09-24T20:40:03.199Z,941.35
2022-09-24T20:45:06.166Z,941.43
2022-09-24T20:50:03.045Z,941.51
2022-09-24T20:55:02.973Z,941.47
2022-09-24T21:00:03.100Z,941.53
2022-09-24T21:05:03.061Z,941.45
2022-09-24T21:10:03.254Z,941.45
2022-09-24T21:15:03.124Z,941.55
2022-09-24T21:20:03.285Z,941.57
2022-09-24T21:25:03.059Z,941.57
2022-09-24T21:30:03.336Z,941.63
2022-09-24T21:35:03.192Z,941.64
2022-09-24T21:40:03.212Z,941.68
2022-09-24T21:45:03.148Z,941.84
2022-09-24T21:50:03.239Z,941.82
2022-09-24T21:55:04.152Z,941.94
2022-09-24T22:00:03.215Z,942.02
2022-09-24T22:05:03.051Z,942.02
2022-09-24T22:10:03.227Z,942.02
2022-09-24T22:15:03.049Z,942.02
2022-09-24T22:20:03.341Z,942.00
2022-09-24T22:25:03.130Z,942.06
2022-09-24T22:30:03.157Z,942.13
2022-09-24T22:35:03.029Z,942.17
2022-09-24T22:40:03.272Z,942.21
2022-09-24T22:45:04.167Z,942.13
2022-09-24T22:50:03.171Z,942.11
2022-09-24T22:55:03.031Z,942.17
2022-09-24T23:00:03.311Z,942.27
2022-09-24T23:05:03.129Z,942.37
2022-09-24T23:10:03.171Z,942.43
2022-09-24T23:15:03.108Z,942.47
2022-09-24T23:20:03.278Z,942.45
2022-09-24T23:25:03.124Z,942.45
2022-09-24T23:30:03.156Z,942.39
2022-09-24T23:35:08.014Z,942.33
2022-09-24T23:40:03.236Z,942.21
2022-09-24T23:45:03.120Z,942.21
2022-09-24T23:50:03.173Z,942.23
2022-09-24T23:55:03.090Z,942.27
